Time;durP1;ratioP1;P1;durP2;ratioP2;P2;SDS_P1;SDS_P2;PMS_P1;PMS_P2;Temp;Humidity;BMP_temperature;BMP_pressure;BME280_temperature;BME280_humidity;BME280_pressure;Samples;Min_cycle;Max_cycle;Signal;HPM_P1;HPM_P2
2021/08/15 00:01:44;;;;;;;4.67;3.10;;;24.80;97.50;;;;;;5004164;28;20200;-73
2021/08/15 00:04:11;;;;;;;4.73;2.70;;;24.80;97.60;;;;;;5000241;28;20192;-73
2021/08/15 00:06:38;;;;;;;3.50;2.70;;;24.70;97.50;;;;;;4998207;28;20212;-72
2021/08/15 00:09:04;;;;;;;5.97;2.95;;;24.80;97.50;;;;;;4982981;28;20297;-73
2021/08/15 00:11:33;;;;;;;5.65;2.80;;;24.70;96.90;;;;;;5002796;28;20650;-71
2021/08/15 00:14:00;;;;;;;4.63;3.00;;;24.70;96.70;;;;;;5002258;28;20192;-72
2021/08/15 00:16:26;;;;;;;8.98;3.22;;;24.70;96.80;;;;;;5003903;28;20199;-72
2021/08/15 00:18:52;;;;;;;5.03;2.85;;;24.70;96.60;;;;;;5004509;28;20585;-73
2021/08/15 00:21:19;;;;;;;6.40;3.40;;;24.70;97.30;;;;;;5006447;28;20665;-73
2021/08/15 00:23:46;;;;;;;4.93;2.85;;;24.70;96.80;;;;;;5004572;28;20279;-72
2021/08/15 00:26:12;;;;;;;5.53;3.07;;;24.70;97.00;;;;;;5005439;28;20192;-74
2021/08/15 00:28:38;;;;;;;3.55;2.92;;;24.70;96.80;;;;;;5005364;28;21179;-72
2021/08/15 00:31:05;;;;;;;7.00;3.07;;;24.70;96.60;;;;;;5008208;28;20199;-74
2021/08/15 00:33:31;;;;;;;4.72;2.90;;;24.80;96.60;;;;;;5005784;28;20197;-73
2021/08/15 00:35:58;;;;;;;7.82;2.95;;;24.80;96.70;;;;;;4992155;28;20216;-73
2021/08/15 00:38:25;;;;;;;5.00;2.90;;;24.80;95.80;;;;;;4999950;28;20186;-73
2021/08/15 00:40:51;;;;;;;5.75;3.00;;;24.80;95.50;;;;;;5017486;28;20192;-73
2021/08/15 00:43:17;;;;;;;7.60;2.87;;;24.70;95.60;;;;;;5002001;28;20192;-73
2021/08/15 00:45:43;;;;;;;6.30;2.58;;;24.80;95.60;;;;;;5004724;28;20185;-72
2021/08/15 00:48:11;;;;;;;6.67;3.40;;;24.80;95.50;;;;;;5000631;28;20562;-70
2021/08/15 00:50:38;;;;;;;7.57;3.25;;;24.70;95.10;;;;;;4999556;28;20216;-70
2021/08/15 00:53:06;;;;;;;5.80;3.10;;;24.70;95.00;;;;;;4985930;28;20648;-73
2021/08/15 00:55:34;;;;;;;4.63;3.00;;;24.70;94.80;;;;;;5002232;28;20199;-73
2021/08/15 00:58:06;;;;;;;4.72;2.70;;;24.70;94.40;;;;;;5019544;28;20197;-72
2021/08/15 01:00:33;;;;;;;5.33;2.70;;;24.60;93.50;;;;;;5001850;28;20284;-73
2021/08/15 01:03:00;;;;;;;6.37;3.47;;;24.50;93.40;;;;;;5005025;28;20196;-72
2021/08/15 01:05:28;;;;;;;8.10;3.23;;;24.50;93.30;;;;;;4987192;28;20216;-73
2021/08/15 01:07:54;;;;;;;5.13;2.90;;;24.40;93.30;;;;;;4999834;28;20834;-75
2021/08/15 01:10:20;;;;;;;4.17;2.67;;;24.30;92.80;;;;;;4999118;28;20673;-72
2021/08/15 01:12:47;;;;;;;5.20;2.70;;;24.30;92.50;;;;;;5016468;28;20220;-75
2021/08/15 01:15:17;;;;;;;5.20;2.60;;;24.30;92.40;;;;;;5020720;28;20204;-73
2021/08/15 01:17:44;;;;;;;5.57;2.90;;;24.30;92.80;;;;;;5006828;28;20177;-73
2021/08/15 01:20:13;;;;;;;5.30;2.60;;;24.30;92.30;;;;;;5001962;28;20649;-73
2021/08/15 01:22:46;;;;;;;3.40;2.77;;;24.30;92.30;;;;;;5017834;28;20193;-72
2021/08/15 01:25:14;;;;;;;5.13;2.93;;;24.20;92.30;;;;;;5007935;28;20295;-72
2021/08/15 01:27:43;;;;;;;5.33;2.83;;;24.20;92.60;;;;;;5003607;28;20196;-75
2021/08/15 01:30:15;;;;;;;4.03;2.70;;;24.10;92.80;;;;;;5002778;28;20689;-73
2021/08/15 01:32:44;;;;;;;4.43;2.70;;;24.10;93.10;;;;;;5006909;28;20188;-74
2021/08/15 01:35:12;;;;;;;5.70;2.93;;;24.10;92.80;;;;;;4988717;28;20183;-75
2021/08/15 01:37:38;;;;;;;8.17;3.20;;;24.10;93.00;;;;;;4993889;28;20180;-73
2021/08/15 01:40:07;;;;;;;4.23;2.80;;;24.10;92.70;;;;;;5005980;28;20223;-74
2021/08/15 01:42:34;;;;;;;3.77;2.80;;;24.10;92.60;;;;;;5006030;28;20196;-73
2021/08/15 01:45:05;;;;;;;7.37;2.63;;;24.00;92.80;;;;;;5014312;28;20204;-74
2021/08/15 01:47:31;;;;;;;4.07;2.80;;;24.00;92.70;;;;;;5004236;28;20582;-74
2021/08/15 01:49:58;;;;;;;7.27;2.90;;;24.00;92.30;;;;;;4999970;28;20201;-74
2021/08/15 01:52:24;;;;;;;5.47;2.90;;;24.00;92.10;;;;;;5005208;28;20189;-75
2021/08/15 01:54:50;;;;;;;8.27;2.60;;;24.00;91.90;;;;;;5004210;28;20232;-74
2021/08/15 01:57:16;;;;;;;4.67;2.80;;;24.00;91.80;;;;;;5000679;28;20178;-74
2021/08/15 01:59:42;;;;;;;5.43;3.00;;;23.90;91.50;;;;;;5004161;28;20412;-74
2021/08/15 02:02:09;;;;;;;6.30;2.53;;;23.80;91.60;;;;;;5008086;28;20211;-73
2021/08/15 02:04:35;;;;;;;3.07;2.43;;;23.80;91.50;;;;;;4997496;28;20220;-72
2021/08/15 02:07:03;;;;;;;6.20;2.93;;;23.90;91.60;;;;;;4999182;28;20205;-73
2021/08/15 02:09:29;;;;;;;4.47;2.67;;;24.00;91.50;;;;;;5009424;28;20642;-74
2021/08/15 02:11:55;;;;;;;6.00;2.83;;;24.00;91.30;;;;;;5016963;28;20199;-75
2021/08/15 02:14:21;;;;;;;4.20;2.70;;;24.00;91.60;;;;;;5003399;28;20213;-74
2021/08/15 02:16:48;;;;;;;4.73;2.50;;;24.00;91.60;;;;;;5005469;28;20243;-73
2021/08/15 02:19:14;;;;;;;4.60;2.57;;;24.00;91.40;;;;;;5001809;28;20204;-71
2021/08/15 02:21:40;;;;;;;7.00;2.80;;;23.90;91.20;;;;;;5006224;28;20546;-73
2021/08/15 02:24:06;;;;;;;4.83;2.50;;;23.90;91.30;;;;;;5009106;28;20188;-74
2021/08/15 02:26:33;;;;;;;5.57;2.70;;;23.90;90.90;;;;;;5009072;28;20193;-72
2021/08/15 02:28:59;;;;;;;3.53;2.70;;;23.90;91.30;;;;;;5008410;28;20342;-75
2021/08/15 02:31:25;;;;;;;5.17;2.47;;;23.90;91.10;;;;;;5008131;28;20284;-73
2021/08/15 02:33:51;;;;;;;6.53;3.00;;;24.00;91.30;;;;;;5005729;28;21025;-74
2021/08/15 02:36:17;;;;;;;10.27;3.00;;;24.00;91.40;;;;;;5005389;28;20243;-74
2021/08/15 02:38:44;;;;;;;4.67;2.70;;;23.90;90.80;;;;;;5004171;28;20173;-75
2021/08/15 02:41:10;;;;;;;5.03;2.73;;;23.90;91.10;;;;;;5002431;28;20181;-74
2021/08/15 02:43:36;;;;;;;7.80;2.37;;;23.80;91.00;;;;;;5006109;28;20185;-73
2021/08/15 02:46:02;;;;;;;4.83;2.63;;;23.80;91.00;;;;;;5009988;28;20222;-73
2021/08/15 02:48:31;;;;;;;10.67;2.80;;;23.80;91.10;;;;;;5003322;28;20220;-72
2021/08/15 02:50:58;;;;;;;9.37;2.57;;;23.80;91.20;;;;;;4991292;28;20600;-73
2021/08/15 02:53:25;;;;;;;8.40;2.93;;;23.80;91.20;;;;;;5008747;28;20214;-75
2021/08/15 02:55:51;;;;;;;8.17;3.00;;;23.80;91.20;;;;;;5006963;28;20213;-73
2021/08/15 02:58:17;;;;;;;8.77;3.10;;;23.80;91.50;;;;;;5006570;28;20193;-72
2021/08/15 03:00:44;;;;;;;3.97;2.70;;;23.80;91.60;;;;;;5005887;28;20224;-73
2021/08/15 03:03:10;;;;;;;4.70;2.67;;;23.80;92.10;;;;;;5004087;28;20193;-73
2021/08/15 03:05:36;;;;;;;4.57;2.80;;;23.80;92.30;;;;;;5001583;28;20296;-73
2021/08/15 03:08:03;;;;;;;5.13;2.77;;;23.90;92.50;;;;;;5009219;28;20189;-73
2021/08/15 03:10:29;;;;;;;8.13;3.00;;;23.90;92.60;;;;;;4996884;28;20216;-74
2021/08/15 03:12:55;;;;;;;6.63;2.87;;;24.00;92.90;;;;;;5005239;28;20219;-73
2021/08/15 03:15:21;;;;;;;7.80;3.00;;;24.00;93.10;;;;;;5001910;28;20662;-74
2021/08/15 03:17:48;;;;;;;6.30;2.83;;;24.00;93.20;;;;;;5009204;28;20220;-73
2021/08/15 03:20:14;;;;;;;11.30;3.30;;;24.00;93.10;;;;;;5006158;28;20211;-72
2021/08/15 03:22:40;;;;;;;8.87;3.00;;;24.00;93.20;;;;;;5007115;28;20186;-73
2021/08/15 03:25:08;;;;;;;4.60;2.93;;;24.10;93.40;;;;;;5002315;28;20196;-74
2021/08/15 03:27:34;;;;;;;7.90;3.20;;;24.10;93.60;;;;;;5020694;28;20189;-73
2021/08/15 03:30:01;;;;;;;9.30;3.10;;;24.10;93.40;;;;;;5006920;28;20217;-73
2021/08/15 03:32:28;;;;;;;5.23;2.80;;;24.10;93.60;;;;;;5002494;28;20194;-73
2021/08/15 03:34:54;;;;;;;5.30;2.83;;;24.10;93.70;;;;;;5007123;28;20196;-73
2021/08/15 03:37:20;;;;;;;7.13;3.00;;;24.10;94.00;;;;;;5005122;28;20530;-73
2021/08/15 03:39:47;;;;;;;6.53;2.80;;;24.10;93.90;;;;;;5002504;28;20252;-73
2021/08/15 03:42:13;;;;;;;7.20;3.10;;;24.10;94.10;;;;;;4999829;28;20220;-73
2021/08/15 03:44:39;;;;;;;5.07;2.63;;;24.10;94.20;;;;;;5008863;28;20278;-74
2021/08/15 03:47:06;;;;;;;4.00;2.60;;;24.10;94.40;;;;;;5010118;28;20200;-72
2021/08/15 03:49:32;;;;;;;6.80;3.00;;;24.10;94.30;;;;;;5008379;28;20220;-73
2021/08/15 03:51:58;;;;;;;6.50;2.83;;;24.10;94.80;;;;;;5005892;28;20646;-72
2021/08/15 03:54:25;;;;;;;3.90;2.57;;;24.10;94.80;;;;;;4992232;28;20545;-74
2021/08/15 03:56:52;;;;;;;5.97;2.93;;;24.10;95.00;;;;;;5005358;28;21032;-73
2021/08/15 03:59:18;;;;;;;6.57;3.00;;;24.10;94.80;;;;;;5004664;28;20204;-73
2021/08/15 04:01:46;;;;;;;5.97;2.97;;;24.10;94.70;;;;;;5007883;28;20272;-74
2021/08/15 04:04:13;;;;;;;4.40;2.87;;;24.10;95.20;;;;;;4990403;28;20196;-73
2021/08/15 04:06:39;;;;;;;6.03;3.00;;;24.10;95.20;;;;;;5005484;28;20197;-74
2021/08/15 04:09:05;;;;;;;9.00;3.23;;;24.00;95.10;;;;;;5005991;28;20247;-74
2021/08/15 04:11:32;;;;;;;7.23;3.17;;;24.10;95.40;;;;;;5001287;28;20185;-75
2021/08/15 04:13:58;;;;;;;5.83;3.13;;;24.10;95.50;;;;;;5000732;28;20634;-74
2021/08/15 04:16:24;;;;;;;6.23;3.03;;;24.00;95.90;;;;;;5002383;28;20190;-73
2021/08/15 04:18:51;;;;;;;4.13;3.00;;;24.00;96.20;;;;;;5006287;28;20220;-74
2021/08/15 04:21:17;;;;;;;6.30;3.20;;;24.10;96.40;;;;;;5003390;28;20209;-73
2021/08/15 04:23:43;;;;;;;9.20;3.20;;;24.10;96.70;;;;;;5006582;28;20186;-73
2021/08/15 04:26:10;;;;;;;6.93;2.73;;;24.10;96.80;;;;;;5008313;28;20197;-74
2021/08/15 04:28:36;;;;;;;5.97;3.20;;;24.10;96.90;;;;;;5000034;28;20185;-74
2021/08/15 04:31:03;;;;;;;3.63;2.90;;;24.20;96.90;;;;;;4987129;28;20185;-74
2021/08/15 04:33:29;;;;;;;6.82;3.25;;;24.20;97.40;;;;;;5007495;28;20280;-73
2021/08/15 04:35:56;;;;;;;4.40;3.00;;;24.20;97.70;;;;;;5018486;28;20263;-74
2021/08/15 04:38:24;;;;;;;6.03;3.10;;;24.20;97.90;;;;;;5001126;28;20203;-73
2021/08/15 04:40:50;;;;;;;8.20;3.20;;;24.20;98.40;;;;;;5023401;28;20185;-73
2021/08/15 04:43:19;;;;;;;5.83;2.70;;;24.20;98.20;;;;;;4979746;28;20188;-74
2021/08/15 04:45:48;;;;;;;6.33;3.33;;;24.30;98.20;;;;;;5003629;28;20211;-74
2021/08/15 04:48:17;;;;;;;4.63;2.70;;;24.30;98.30;;;;;;5000639;28;20239;-73
2021/08/15 04:50:44;;;;;;;5.63;2.88;;;24.40;98.60;;;;;;5000738;28;20327;-74
2021/08/15 04:53:10;;;;;;;8.77;3.33;;;24.40;98.60;;;;;;5003204;28;20216;-73
2021/08/15 04:55:37;;;;;;;8.18;3.60;;;24.50;98.60;;;;;;5007303;28;20185;-73
2021/08/15 04:58:05;;;;;;;5.15;3.00;;;24.50;99.00;;;;;;5005759;28;20713;-72
2021/08/15 05:00:31;;;;;;;5.28;3.03;;;24.60;99.10;;;;;;5007366;28;20194;-74
2021/08/15 05:02:57;;;;;;;5.00;3.05;;;24.60;99.20;;;;;;5006552;28;20220;-74
2021/08/15 05:05:23;;;;;;;5.32;3.08;;;24.70;99.90;;;;;;4980980;28;20190;-74
2021/08/15 05:07:50;;;;;;;4.80;2.65;;;24.70;99.80;;;;;;5005227;28;20189;-74
2021/08/15 05:10:16;;;;;;;5.53;3.25;;;24.80;99.70;;;;;;5006233;28;20219;-72
2021/08/15 05:12:42;;;;;;;8.70;3.95;;;24.80;99.90;;;;;;4997455;28;20243;-73
2021/08/15 05:15:10;;;;;;;6.65;3.20;;;24.90;99.90;;;;;;4998907;28;20192;-73
2021/08/15 05:17:37;;;;;;;6.03;2.92;;;24.90;99.90;;;;;;5001346;28;20194;-74
2021/08/15 05:20:04;;;;;;;4.82;3.50;;;24.90;99.90;;;;;;5000453;28;20243;-74
2021/08/15 05:22:30;;;;;;;7.18;3.38;;;25.00;99.90;;;;;;5007465;28;20276;-72
2021/08/15 05:24:57;;;;;;;9.30;4.07;;;25.00;99.60;;;;;;5005832;28;20695;-73
2021/08/15 05:27:23;;;;;;;8.02;3.90;;;25.10;99.40;;;;;;5002648;28;20597;-72
2021/08/15 05:29:49;;;;;;;6.13;4.28;;;25.10;99.30;;;;;;5002602;28;20705;-72
2021/08/15 05:32:15;;;;;;;10.82;6.00;;;25.10;99.70;;;;;;5003522;28;20193;-73
2021/08/15 05:34:42;;;;;;;6.85;5.32;;;25.10;99.80;;;;;;5006264;28;20193;-73
2021/08/15 05:37:09;;;;;;;6.32;4.60;;;25.20;99.90;;;;;;5009751;28;20189;-73
2021/08/15 05:39:36;;;;;;;14.25;3.58;;;25.30;99.90;;;;;;5005265;28;20723;-70
2021/08/15 05:42:02;;;;;;;4.28;3.10;;;25.40;99.90;;;;;;5006787;28;20235;-71
2021/08/15 05:44:29;;;;;;;6.53;3.28;;;25.50;99.80;;;;;;4998830;28;20255;-75
2021/08/15 05:46:55;;;;;;;6.32;2.97;;;25.50;99.90;;;;;;5001649;28;20700;-73
2021/08/15 05:49:22;;;;;;;19.08;3.83;;;25.60;99.90;;;;;;5002412;28;20216;-73
2021/08/15 05:51:48;;;;;;;6.63;3.28;;;25.70;99.90;;;;;;4983403;28;20497;-74
2021/08/15 05:54:14;;;;;;;4.68;2.92;;;25.70;99.90;;;;;;5001905;28;20227;-71
2021/08/15 05:56:41;;;;;;;6.53;3.05;;;25.70;99.90;;;;;;4986791;28;20223;-71
2021/08/15 05:59:07;;;;;;;9.15;3.35;;;25.80;99.90;;;;;;5002464;28;20207;-73
2021/08/15 06:01:33;;;;;;;4.38;3.17;;;25.90;99.90;;;;;;5000941;28;20685;-73
2021/08/15 06:04:03;;;;;;;5.32;3.20;;;26.00;99.90;;;;;;4999732;28;20196;-72
2021/08/15 06:06:30;;;;;;;9.48;3.53;;;25.90;99.90;;;;;;5000695;28;20197;-70
2021/08/15 06:08:56;;;;;;;5.65;3.00;;;26.00;99.90;;;;;;5002316;28;20223;-73
2021/08/15 06:11:22;;;;;;;5.68;3.22;;;26.10;99.90;;;;;;4999983;28;20226;-73
2021/08/15 06:13:51;;;;;;;9.40;3.33;;;26.20;99.90;;;;;;5005444;28;20188;-74
2021/08/15 06:16:19;;;;;;;4.05;2.60;;;26.30;99.90;;;;;;4995396;28;20204;-73
2021/08/15 06:18:45;;;;;;;10.57;3.50;;;26.50;99.90;;;;;;5001858;28;20628;-72
2021/08/15 06:21:11;;;;;;;10.30;3.42;;;26.60;99.90;;;;;;5003939;28;20199;-72
2021/08/15 06:23:38;;;;;;;7.78;3.42;;;26.80;99.50;;;;;;5007323;28;20232;-72
2021/08/15 06:26:04;;;;;;;10.68;3.05;;;26.80;99.90;;;;;;5002096;28;20193;-72
2021/08/15 06:28:31;;;;;;;7.18;3.08;;;27.00;99.90;;;;;;5002632;28;20949;-72
2021/08/15 06:30:58;;;;;;;4.97;3.28;;;27.00;99.90;;;;;;5006014;28;20220;-72
2021/08/15 06:33:24;;;;;;;9.95;3.55;;;27.10;99.90;;;;;;5003268;28;20530;-72
2021/08/15 06:35:51;;;;;;;5.57;3.00;;;27.20;99.90;;;;;;5004475;28;20189;-71
2021/08/15 06:38:17;;;;;;;9.10;3.65;;;27.20;99.90;;;;;;5006130;28;20194;-71
2021/08/15 06:40:44;;;;;;;8.52;3.38;;;27.40;99.90;;;;;;5000455;28;20231;-71
2021/08/15 06:43:12;;;;;;;7.00;3.53;;;27.30;99.90;;;;;;5007032;28;20242;-73
2021/08/15 06:45:40;;;;;;;5.07;2.92;;;27.20;99.90;;;;;;4996570;28;20215;-75
2021/08/15 06:48:07;;;;;;;7.55;3.10;;;27.30;99.90;;;;;;5000177;28;21020;-73
2021/08/15 06:50:33;;;;;;;8.18;3.17;;;27.40;99.90;;;;;;5003109;28;20209;-74
2021/08/15 06:53:00;;;;;;;7.85;3.60;;;27.50;99.90;;;;;;5004753;28;20653;-74
2021/08/15 06:55:27;;;;;;;8.88;2.95;;;27.40;99.90;;;;;;5003575;28;20284;-73
2021/08/15 06:57:53;;;;;;;8.05;3.47;;;27.50;99.90;;;;;;4999110;28;20925;-74
2021/08/15 07:00:20;;;;;;;4.90;2.97;;;27.70;99.80;;;;;;5004144;28;20545;-73
2021/08/15 07:02:48;;;;;;;8.43;3.20;;;27.90;99.20;;;;;;5006111;28;20204;-73
2021/08/15 07:05:16;;;;;;;8.07;3.35;;;27.90;99.70;;;;;;5005279;28;20668;-73
2021/08/15 07:07:43;;;;;;;8.68;3.35;;;28.00;99.90;;;;;;5004158;28;20189;-73
2021/08/15 07:10:11;;;;;;;5.45;3.10;;;28.00;99.90;;;;;;5002190;28;20216;-72
2021/08/15 07:12:37;;;;;;;8.35;3.30;;;28.10;99.90;;;;;;5006722;28;20199;-75
2021/08/15 07:15:06;;;;;;;9.82;3.13;;;28.30;99.90;;;;;;5013162;28;20681;-75
2021/08/15 07:17:36;;;;;;;11.23;3.50;;;28.40;99.90;;;;;;5003864;28;20260;-74
2021/08/15 07:20:06;;;;;;;9.02;2.90;;;28.50;99.90;;;;;;5014890;28;20263;-75
2021/08/15 07:22:32;;;;;;;6.57;2.83;;;28.50;99.90;;;;;;5004725;28;20207;-75
2021/08/15 07:24:59;;;;;;;9.63;3.30;;;28.40;99.90;;;;;;5011317;28;20193;-75
2021/08/15 07:27:25;;;;;;;10.63;3.80;;;28.50;99.90;;;;;;5008712;28;20201;-75
2021/08/15 07:29:52;;;;;;;13.48;3.17;;;28.60;99.90;;;;;;4987308;28;20220;-75
2021/08/15 07:32:18;;;;;;;9.05;3.75;;;28.70;99.90;;;;;;5011071;28;20227;-71
2021/08/15 07:34:44;;;;;;;9.65;3.50;;;28.70;99.90;;;;;;5008887;28;20200;-74
2021/08/15 07:37:11;;;;;;;9.43;3.33;;;28.80;99.90;;;;;;5006637;28;20189;-74
2021/08/15 07:39:37;;;;;;;9.95;3.30;;;29.00;99.90;;;;;;4999967;28;20235;-74
2021/08/15 07:42:04;;;;;;;7.45;3.60;;;29.10;99.90;;;;;;5010780;28;20204;-72
2021/08/15 07:44:31;;;;;;;9.40;3.25;;;29.10;99.90;;;;;;5010099;28;20230;-74
2021/08/15 07:46:57;;;;;;;8.65;3.30;;;29.10;99.90;;;;;;5006201;28;20200;-74
2021/08/15 07:49:23;;;;;;;9.35;3.70;;;29.30;99.90;;;;;;5005866;28;20554;-74
2021/08/15 07:51:50;;;;;;;7.35;3.45;;;29.40;99.90;;;;;;5010308;28;20187;-71
2021/08/15 07:54:17;;;;;;;7.05;3.05;;;29.50;99.90;;;;;;5014687;28;20350;-74
2021/08/15 07:56:44;;;;;;;7.10;3.42;;;29.50;99.90;;;;;;5009793;28;20272;-75
2021/08/15 07:59:10;;;;;;;8.60;3.60;;;29.40;99.90;;;;;;4992031;28;20681;-75
2021/08/15 08:01:38;;;;;;;11.45;2.92;;;29.40;99.90;;;;;;4992922;28;20184;-70
2021/08/15 08:04:06;;;;;;;5.72;2.92;;;29.50;99.40;;;;;;5008074;28;20669;-72
2021/08/15 08:06:32;;;;;;;15.10;3.08;;;29.60;98.00;;;;;;5004818;28;20193;-72
2021/08/15 08:08:59;;;;;;;4.35;2.70;;;29.60;99.40;;;;;;5010907;28;20185;-72
2021/08/15 08:11:25;;;;;;;6.80;2.90;;;29.60;99.50;;;;;;5010102;28;20783;-73
2021/08/15 08:13:51;;;;;;;7.07;3.40;;;29.70;99.80;;;;;;5005478;28;20807;-74
2021/08/15 08:16:18;;;;;;;10.88;3.30;;;29.70;99.90;;;;;;5002155;28;20645;-73
2021/08/15 08:18:44;;;;;;;11.68;3.20;;;29.90;99.90;;;;;;4982462;28;20837;-74
2021/08/15 08:21:11;;;;;;;9.57;3.40;;;29.90;99.90;;;;;;5006586;28;20601;-73
2021/08/15 08:23:40;;;;;;;10.90;3.45;;;29.80;99.90;;;;;;5009573;28;20192;-74
2021/08/15 08:26:09;;;;;;;6.25;2.92;;;29.90;99.90;;;;;;5007139;28;20219;-73
2021/08/15 08:28:35;;;;;;;10.73;3.58;;;29.90;99.90;;;;;;5001077;28;20185;-73
2021/08/15 08:31:02;;;;;;;9.85;3.53;;;30.00;99.90;;;;;;5003834;28;20216;-73
2021/08/15 08:33:28;;;;;;;10.38;4.00;;;30.10;99.90;;;;;;5005326;28;20185;-74
2021/08/15 08:35:55;;;;;;;8.02;3.35;;;30.20;99.90;;;;;;5008208;28;20250;-73
2021/08/15 08:38:21;;;;;;;10.07;3.20;;;30.30;99.90;;;;;;5003226;28;20280;-75
2021/08/15 08:40:49;;;;;;;5.32;3.05;;;30.40;99.90;;;;;;4987467;28;20200;-74
2021/08/15 08:43:20;;;;;;;11.48;3.45;;;30.40;99.90;;;;;;5009979;28;20187;-72
2021/08/15 08:45:48;;;;;;;9.63;3.25;;;30.40;99.90;;;;;;5004756;28;20201;-73
2021/08/15 08:48:16;;;;;;;8.55;3.10;;;30.50;99.90;;;;;;5008505;28;20343;-73
2021/08/15 08:50:44;;;;;;;7.70;3.17;;;30.50;99.90;;;;;;5000659;28;20208;-73
2021/08/15 08:53:11;;;;;;;5.78;2.92;;;30.70;99.90;;;;;;5006554;28;20188;-73
2021/08/15 08:55:37;;;;;;;15.45;3.45;;;30.60;99.90;;;;;;5002903;28;20185;-75
2021/08/15 08:58:04;;;;;;;7.45;3.03;;;30.70;99.90;;;;;;5008526;28;20303;-75
2021/08/15 09:00:30;;;;;;;6.68;3.22;;;30.90;99.90;;;;;;5001886;28;20197;-74
2021/08/15 09:02:57;;;;;;;6.97;3.08;;;30.80;99.90;;;;;;5005743;28;20944;-73
2021/08/15 09:05:35;;;;;;;3.92;2.88;;;31.00;99.60;;;;;;5007432;28;20197;-74
2021/08/15 09:08:03;;;;;;;6.82;3.20;;;31.10;99.50;;;;;;5000874;28;20188;-74
2021/08/15 09:10:39;;;;;;;4.88;3.00;;;31.20;99.90;;;;;;5007752;28;20225;-73
2021/08/15 09:13:10;;;;;;;10.07;3.30;;;31.10;99.40;;;;;;5002066;28;20193;-74
2021/08/15 09:15:38;;;;;;;5.65;2.80;;;31.10;98.90;;;;;;5000445;28;20186;-73
2021/08/15 09:18:05;;;;;;;11.57;3.28;;;31.10;99.30;;;;;;5007593;28;20185;-72
2021/08/15 09:20:47;;;;;;;8.13;3.20;;;31.10;99.40;;;;;;4999066;28;20188;-75
2021/08/15 09:23:27;;;;;;;5.68;3.35;;;31.40;97.80;;;;;;5013433;28;20238;-74
2021/08/15 09:26:21;;;;;;;7.40;3.55;;;31.30;98.00;;;;;;5002733;28;20196;-75
2021/08/15 09:28:51;;;;;;;12.05;3.50;;;31.40;99.20;;;;;;5006194;28;20189;-75
2021/08/15 09:31:33;;;;;;;6.75;2.97;;;31.40;99.50;;;;;;4986649;28;20193;-75
2021/08/15 09:34:03;;;;;;;5.35;3.17;;;31.60;98.80;;;;;;4986748;28;20280;-75
2021/08/15 09:36:41;;;;;;;10.77;3.03;;;31.50;99.10;;;;;;5002436;28;20187;-75
2021/08/15 09:39:11;;;;;;;6.78;2.55;;;31.70;99.70;;;;;;5003247;28;20184;-75
2021/08/15 09:41:50;;;;;;;8.07;3.10;;;31.80;99.10;;;;;;4984178;28;20205;-74
2021/08/15 09:44:24;;;;;;;7.80;3.00;;;31.90;97.60;;;;;;4997499;28;20696;-73
2021/08/15 09:47:12;;;;;;;10.20;3.55;;;32.10;96.90;;;;;;4985517;28;20223;-73
2021/08/15 09:49:42;;;;;;;6.90;2.97;;;32.00;96.40;;;;;;4999883;28;20213;-73
2021/08/15 09:52:18;;;;;;;9.30;3.03;;;32.20;97.40;;;;;;4976694;28;20189;-72
2021/08/15 09:54:59;;;;;;;9.63;3.10;;;32.30;95.70;;;;;;5000625;28;20653;-75
2021/08/15 09:57:34;;;;;;;5.03;2.65;;;32.40;95.50;;;;;;4998713;28;20204;-72
2021/08/15 10:00:04;;;;;;;8.80;3.60;;;32.40;95.90;;;;;;5000224;28;20208;-72
2021/08/15 10:02:32;;;;;;;5.85;3.20;;;32.80;95.60;;;;;;4999134;28;20201;-73
2021/08/15 10:04:59;;;;;;;9.55;3.30;;;33.40;95.10;;;;;;5001798;28;20200;-73
2021/08/15 10:07:26;;;;;;;6.32;2.95;;;33.30;94.30;;;;;;5005219;28;20192;-70
2021/08/15 10:09:53;;;;;;;8.73;3.00;;;33.30;93.50;;;;;;5000053;28;20271;-70
2021/08/15 10:12:20;;;;;;;7.30;3.00;;;32.90;93.90;;;;;;5000271;28;20223;-72
2021/08/15 10:14:47;;;;;;;5.70;2.53;;;32.80;94.50;;;;;;5000557;28;20734;-69
2021/08/15 10:17:17;;;;;;;4.32;2.75;;;33.00;93.90;;;;;;5000779;28;20258;-74
2021/08/15 10:20:01;;;;;;;7.93;2.75;;;34.20;93.20;;;;;;4998892;28;20200;-71
2021/08/15 10:22:32;;;;;;;7.72;2.58;;;35.30;91.10;;;;;;5007141;28;20192;-72
2021/08/15 10:25:05;;;;;;;8.82;2.65;;;34.90;91.50;;;;;;4998456;28;20219;-71
2021/08/15 10:27:47;;;;;;;17.08;2.95;;;34.30;91.30;;;;;;5015593;28;20197;-71
2021/08/15 10:30:14;;;;;;;5.82;3.10;;;34.00;90.40;;;;;;5000704;28;20287;-72
2021/08/15 10:32:56;;;;;;;6.00;2.78;;;34.10;89.70;;;;;;5000177;28;20231;-71
2021/08/15 10:35:31;;;;;;;6.47;2.83;;;34.70;90.30;;;;;;5016151;28;20227;-71
2021/08/15 10:38:16;;;;;;;4.80;3.00;;;37.00;85.90;;;;;;4998676;28;20192;-71
2021/08/15 10:40:45;;;;;;;4.93;2.88;;;37.80;81.40;;;;;;5002213;28;20670;-70
2021/08/15 10:43:23;;;;;;;5.88;2.85;;;39.20;79.00;;;;;;4990034;28;20192;-70
2021/08/15 10:46:15;;;;;;;8.57;2.95;;;38.00;80.10;;;;;;5006500;28;20196;-70
2021/08/15 10:49:07;;;;;;;5.93;2.78;;;35.60;85.00;;;;;;5001172;28;20260;-70
2021/08/15 10:51:53;;;;;;;10.43;2.97;;;34.70;83.80;;;;;;5005042;28;20202;-71
2021/08/15 10:54:55;;;;;;;9.80;2.70;;;34.30;87.00;;;;;;4996889;28;20717;-70
2021/08/15 10:57:52;;;;;;;8.75;2.97;;;33.80;88.30;;;;;;5000690;28;20185;-72
2021/08/15 11:00:34;;;;;;;8.27;2.92;;;33.60;86.60;;;;;;5004879;28;20189;-72
2021/08/15 11:03:23;;;;;;;6.35;2.72;;;33.60;90.00;;;;;;5004116;28;20244;-71
2021/08/15 11:05:49;;;;;;;5.47;2.90;;;33.40;89.30;;;;;;5002328;28;20201;-70
2021/08/15 11:08:35;;;;;;;8.30;2.67;;;33.20;89.40;;;;;;5002237;28;20522;-71
2021/08/15 11:11:16;;;;;;;4.70;2.80;;;33.40;90.90;;;;;;5003263;28;20639;-71
2021/08/15 11:13:42;;;;;;;8.18;2.63;;;33.30;85.60;;;;;;5002500;28;20189;-70
2021/08/15 11:16:27;;;;;;;5.85;2.97;;;33.20;91.10;;;;;;5003457;28;20185;-71
2021/08/15 11:19:10;;;;;;;6.30;2.80;;;33.30;90.00;;;;;;5000748;28;20857;-71
2021/08/15 11:22:10;;;;;;;8.10;2.75;;;33.20;88.50;;;;;;5016188;28;20244;-72
2021/08/15 11:24:46;;;;;;;9.98;2.83;;;33.10;90.10;;;;;;5013238;28;20195;-72
2021/08/15 11:27:27;;;;;;;4.93;2.70;;;33.10;89.60;;;;;;5004500;28;20231;-70
2021/08/15 11:29:58;;;;;;;6.95;2.60;;;33.30;85.70;;;;;;5002570;28;20217;-72
2021/08/15 11:32:29;;;;;;;8.20;3.08;;;33.30;89.30;;;;;;5004271;28;20478;-72
2021/08/15 11:34:59;;;;;;;9.38;2.80;;;33.10;89.90;;;;;;5005540;28;20831;-72
2021/08/15 11:37:30;;;;;;;4.40;2.50;;;33.00;89.30;;;;;;5003948;28;20193;-73
2021/08/15 11:40:11;;;;;;;5.88;3.13;;;33.20;89.90;;;;;;5004226;28;21592;-68
2021/08/15 11:42:38;;;;;;;5.05;2.72;;;33.10;89.00;;;;;;4984708;28;20339;-71
2021/08/15 11:45:07;;;;;;;7.22;2.88;;;33.20;87.70;;;;;;5004240;28;20193;-72
2021/08/15 11:47:38;;;;;;;6.45;2.85;;;33.20;88.90;;;;;;5001422;28;20209;-70
2021/08/15 11:50:21;;;;;;;7.55;2.80;;;33.10;90.00;;;;;;5013694;28;20820;-71
2021/08/15 11:52:50;;;;;;;6.20;3.10;;;33.20;87.10;;;;;;5004650;28;20736;-70
2021/08/15 11:55:26;;;;;;;5.78;2.78;;;33.20;88.50;;;;;;4996719;28;20219;-71
2021/08/15 11:58:00;;;;;;;9.90;2.70;;;33.20;88.90;;;;;;5000748;28;20185;-73
2021/08/15 12:00:33;;;;;;;5.78;2.97;;;33.20;88.80;;;;;;5003799;28;20189;-70
2021/08/15 12:03:10;;;;;;;8.45;2.63;;;33.30;88.50;;;;;;4989729;28;20200;-70
2021/08/15 12:05:49;;;;;;;6.40;2.60;;;33.30;89.70;;;;;;5004460;28;20295;-68
2021/08/15 12:08:31;;;;;;;6.63;2.83;;;33.40;90.40;;;;;;5002195;28;20193;-69
2021/08/15 12:10:58;;;;;;;11.18;2.90;;;33.50;88.20;;;;;;5005894;28;20212;-71
2021/08/15 12:13:38;;;;;;;7.28;3.20;;;33.40;86.70;;;;;;4989202;28;20550;-68
2021/08/15 12:16:04;;;;;;;7.40;2.67;;;33.40;86.10;;;;;;5002100;28;20177;-71
2021/08/15 12:18:54;;;;;;;6.03;2.70;;;33.40;87.70;;;;;;4999477;28;20662;-68
2021/08/15 12:21:33;;;;;;;4.45;2.58;;;33.20;87.20;;;;;;5003402;28;20224;-71
2021/08/15 12:24:19;;;;;;;5.45;2.40;;;33.50;85.50;;;;;;5002074;28;20195;-69
2021/08/15 12:27:08;;;;;;;4.47;2.92;;;33.50;83.70;;;;;;4994906;28;20259;-68
2021/08/15 12:29:38;;;;;;;9.25;2.90;;;33.30;84.70;;;;;;4999495;28;20209;-72
2021/08/15 12:32:30;;;;;;;5.57;2.42;;;33.40;83.60;;;;;;4984831;28;20185;-72
2021/08/15 12:35:00;;;;;;;5.13;2.60;;;33.40;83.30;;;;;;5012330;28;20188;-68
2021/08/15 12:37:37;;;;;;;6.20;3.08;;;33.10;82.20;;;;;;4998700;28;20284;-71
2021/08/15 12:40:08;;;;;;;6.68;2.80;;;33.20;86.10;;;;;;5001890;28;20226;-71
2021/08/15 12:42:38;;;;;;;5.78;2.38;;;33.30;82.90;;;;;;5011779;28;20189;-73
2021/08/15 12:45:14;;;;;;;5.28;2.50;;;33.40;83.90;;;;;;5005590;28;20201;-72
2021/08/15 12:47:48;;;;;;;6.57;2.60;;;33.40;79.70;;;;;;5004806;28;20226;-72
2021/08/15 12:50:19;;;;;;;6.65;2.95;;;33.30;80.60;;;;;;5002001;28;20216;-71
2021/08/15 12:52:56;;;;;;;5.22;2.38;;;33.40;79.10;;;;;;5010347;28;20637;-69
2021/08/15 12:55:37;;;;;;;9.20;2.72;;;33.30;80.80;;;;;;5000173;28;20916;-71
2021/08/15 12:58:12;;;;;;;12.63;2.85;;;33.20;81.80;;;;;;4995933;28;20216;-71